Time;durP1;ratioP1;P1;durP2;ratioP2;P2;SDS_P1;SDS_P2;PMS_P1;PMS_P2;Temp;Humidity;BMP_temperature;BMP_pressure;BME280_temperature;BME280_humidity;BME280_pressure;Samples;Min_cycle;Max_cycle;Signal;HPM_P1;HPM_P2
2022/10/07 00:01:29;;;;;;;5.40;2.30;;;7.80;99.90;;;6.94;100.00;102419.44;5073237;23;20382;-78
2022/10/07 00:03:31;;;;;;;7.78;2.63;;;7.80;99.90;;;6.91;100.00;102419.63;5097738;23;20001;-77
2022/10/07 00:05:32;;;;;;;6.70;2.00;;;7.80;99.90;;;6.89;100.00;102418.88;5073321;23;20395;-77
2022/10/07 00:07:33;;;;;;;8.20;2.45;;;7.70;99.90;;;6.90;100.00;102415.34;5099122;23;20005;-77
2022/10/07 00:09:33;;;;;;;6.90;2.03;;;7.70;99.90;;;6.86;100.00;102413.81;5073281;23;20016;-78
2022/10/07 00:11:34;;;;;;;13.57;2.42;;;7.70;99.90;;;6.90;100.00;102415.34;5073304;23;20077;-78
2022/10/07 00:13:37;;;;;;;8.50;2.67;;;7.70;99.90;;;6.89;100.00;102405.78;5073576;23;20010;-78
2022/10/07 00:15:38;;;;;;;8.30;2.47;;;7.70;99.90;;;6.88;100.00;102409.31;5098742;23;20013;-78
2022/10/07 00:17:39;;;;;;;11.23;2.42;;;7.70;99.90;;;6.87;100.00;102395.34;5073203;23;20371;-77
2022/10/07 00:19:40;;;;;;;6.97;2.35;;;7.70;99.90;;;6.84;100.00;102397.34;5097420;23;20061;-77
2022/10/07 00:21:41;;;;;;;6.50;1.88;;;7.70;99.90;;;6.87;100.00;102386.66;5073227;23;20446;-77
2022/10/07 00:23:44;;;;;;;10.77;2.08;;;7.70;99.90;;;6.85;100.00;102392.00;5073312;23;20009;-77
2022/10/07 00:25:45;;;;;;;8.57;2.00;;;7.60;99.90;;;6.82;100.00;102388.69;5073536;23;20006;-77
2022/10/07 00:27:46;;;;;;;9.55;2.20;;;7.60;99.90;;;6.74;100.00;102380.47;5099000;23;20438;-78
2022/10/07 00:29:47;;;;;;;11.23;2.55;;;7.60;99.90;;;6.64;100.00;102378.38;5048870;23;20424;-78
2022/10/07 00:31:48;;;;;;;7.00;1.70;;;7.50;99.90;;;6.57;100.00;102376.22;5073035;23;20009;-78
2022/10/07 00:33:50;;;;;;;10.98;2.88;;;7.50;99.90;;;6.66;100.00;102386.13;5073035;23;20018;-78
2022/10/07 00:35:51;;;;;;;8.90;2.05;;;7.50;99.90;;;6.64;100.00;102385.41;5072929;23;20021;-78
2022/10/07 00:37:52;;;;;;;8.20;1.90;;;7.50;99.90;;;6.68;100.00;102381.66;5048607;23;20475;-77
2022/10/07 00:39:53;;;;;;;7.72;1.77;;;7.50;99.90;;;6.68;100.00;102372.03;5072914;23;20006;-78
2022/10/07 00:41:54;;;;;;;11.93;2.65;;;7.50;99.90;;;6.64;100.00;102367.88;5072942;23;20013;-78
2022/10/07 00:43:55;;;;;;;6.75;2.33;;;7.50;99.90;;;6.69;100.00;102381.56;5073169;23;20076;-77
2022/10/07 00:46:14;;;;;;;9.48;2.00;;;7.50;99.90;;;6.66;100.00;102371.25;5073083;23;20030;-78
2022/10/07 00:48:20;;;;;;;9.25;2.10;;;7.50;99.90;;;6.60;100.00;102376.84;5074533;23;20006;-78
2022/10/07 00:50:28;;;;;;;9.88;2.33;;;7.40;99.90;;;6.61;100.00;102373.31;5073085;23;20010;-78
2022/10/07 00:52:33;;;;;;;5.53;2.40;;;7.50;99.90;;;6.56;100.00;102362.25;5049187;23;20078;-78
2022/10/07 00:54:36;;;;;;;8.70;2.58;;;7.40;99.90;;;6.59;100.00;102369.94;5073003;23;20049;-77
2022/10/07 00:56:39;;;;;;;6.38;1.60;;;7.40;99.90;;;6.55;100.00;102360.56;5072930;23;20089;-78
2022/10/07 00:58:43;;;;;;;8.77;2.70;;;7.40;99.90;;;6.58;100.00;102367.41;5072898;23;20375;-77
2022/10/07 01:00:44;;;;;;;8.40;2.17;;;7.40;99.90;;;6.56;100.00;102370.13;5072795;23;20034;-77
2022/10/07 01:02:47;;;;;;;8.73;1.60;;;7.40;99.90;;;6.53;100.00;102367.69;5074458;23;20029;-78
2022/10/07 01:04:50;;;;;;;9.63;1.63;;;7.40;99.90;;;6.53;100.00;102372.94;5074587;23;20002;-78
2022/10/07 01:06:51;;;;;;;7.53;1.75;;;7.40;99.90;;;6.46;100.00;102352.41;5074268;23;20009;-77
2022/10/07 01:08:53;;;;;;;6.43;1.55;;;7.40;99.90;;;6.54;100.00;102366.72;5072505;23;20010;-78
2022/10/07 01:11:34;;;;;;;9.13;1.85;;;7.40;99.90;;;6.54;100.00;102366.72;5074268;23;20085;-77
2022/10/07 01:14:25;;;;;;;8.85;1.65;;;7.40;99.90;;;6.53;100.00;102365.06;5057101;23;20436;-77
2022/10/07 01:16:40;;;;;;;11.00;2.47;;;7.40;99.90;;;6.54;100.00;102361.50;5074483;23;20057;-77
2022/10/07 01:19:28;;;;;;;6.82;2.03;;;7.40;99.90;;;6.53;100.00;102351.09;5072281;23;20014;-77
2022/10/07 01:22:11;;;;;;;8.00;1.83;;;7.40;99.90;;;6.52;100.00;102355.50;5056571;23;20006;-77
2022/10/07 01:24:33;;;;;;;9.27;2.00;;;7.40;99.90;;;6.48;100.00;102348.75;5048525;23;20007;-77
2022/10/07 01:26:56;;;;;;;4.55;1.90;;;7.30;99.90;;;6.48;100.00;102359.22;5074178;23;20497;-77
2022/10/07 01:29:31;;;;;;;8.07;2.40;;;7.30;99.90;;;6.44;100.00;102343.78;5049329;23;20017;-78
2022/10/07 01:31:52;;;;;;;3.72;1.58;;;7.30;99.90;;;6.40;100.00;102348.38;5067361;23;20017;-78
2022/10/07 01:33:53;;;;;;;7.03;2.22;;;7.30;99.90;;;6.39;100.00;102336.19;5072769;23;20551;-78
2022/10/07 01:36:03;;;;;;;9.00;2.30;;;7.30;99.90;;;6.38;100.00;102328.41;5074184;23;20077;-78
2022/10/07 01:38:08;;;;;;;9.30;1.90;;;7.30;99.90;;;6.39;100.00;102324.88;5072593;23;20092;-78
2022/10/07 01:40:20;;;;;;;4.85;1.75;;;7.20;99.90;;;6.29;100.00;102314.09;5048871;23;20011;-78
2022/10/07 01:42:25;;;;;;;5.47;2.00;;;7.20;99.90;;;6.31;100.00;102316.59;5072941;23;20002;-78
2022/10/07 01:44:30;;;;;;;8.75;1.90;;;7.20;99.90;;;6.24;100.00;102313.53;5072359;23;20006;-78
2022/10/07 01:46:33;;;;;;;10.77;2.88;;;7.20;99.90;;;6.10;100.00;102301.22;5072726;23;20391;-78
2022/10/07 01:48:34;;;;;;;9.65;2.22;;;7.10;99.90;;;6.23;100.00;102318.84;5074227;23;20017;-77
2022/10/07 01:50:36;;;;;;;8.50;2.00;;;7.10;99.90;;;6.25;100.00;102314.34;5048217;23;20150;-77
2022/10/07 01:53:01;;;;;;;6.15;2.17;;;7.10;99.90;;;6.26;100.00;102313.41;5072569;23;20010;-77
2022/10/07 01:55:30;;;;;;;7.10;2.28;;;7.10;99.90;;;6.25;100.00;102307.31;5074307;23;20510;-78
2022/10/07 01:57:48;;;;;;;8.48;2.10;;;7.10;99.90;;;6.25;100.00;102304.72;5073197;23;20006;-78
2022/10/07 01:59:55;;;;;;;10.23;2.00;;;7.10;99.90;;;6.24;100.00;102296.94;5073424;23;20002;-78
2022/10/07 02:02:14;;;;;;;7.40;1.83;;;7.10;99.90;;;6.20;100.00;102298.91;5073974;23;20011;-77
2022/10/07 02:04:35;;;;;;;8.57;2.50;;;7.10;99.90;;;6.14;100.00;102301.88;5074232;23;20006;-78
2022/10/07 02:06:49;;;;;;;7.18;1.90;;;7.00;99.90;;;6.11;100.00;102294.19;5072243;23;20073;-77
2022/10/07 02:08:54;;;;;;;6.40;1.92;;;7.00;99.90;;;6.01;100.00;102272.09;5096781;23;20014;-77
2022/10/07 02:11:19;;;;;;;7.63;2.00;;;6.90;99.90;;;6.04;100.00;102271.91;5072582;23;20006;-77
2022/10/07 02:13:36;;;;;;;8.02;2.30;;;6.90;99.90;;;6.07;100.00;102280.44;5074204;23;20013;-77
2022/10/07 02:16:20;;;;;;;6.40;1.83;;;6.90;99.90;;;6.03;100.00;102265.00;5075921;23;20420;-77
2022/10/07 02:18:22;;;;;;;8.48;2.67;;;6.90;99.90;;;6.05;100.00;102263.13;5046421;23;20010;-77
2022/10/07 02:20:28;;;;;;;5.65;2.30;;;6.90;99.90;;;6.07;100.00;102258.63;5075522;23;20010;-77
2022/10/07 02:22:31;;;;;;;9.00;2.70;;;6.90;99.90;;;6.05;100.00;102255.25;5074160;23;20028;-77
2022/10/07 02:24:36;;;;;;;6.15;2.08;;;6.90;99.90;;;6.06;100.00;102246.47;5074017;23;20009;-77
2022/10/07 02:26:40;;;;;;;8.60;1.95;;;6.90;99.90;;;6.13;100.00;102255.66;5050036;23;20014;-78
2022/10/07 02:28:42;;;;;;;6.93;2.03;;;6.90;99.90;;;6.10;100.00;102247.97;5073637;23;20085;-77
2022/10/07 02:30:48;;;;;;;14.35;2.75;;;6.90;99.90;;;6.13;100.00;102253.03;5074056;23;20454;-77
2022/10/07 02:32:57;;;;;;;8.88;2.40;;;6.90;99.90;;;6.12;100.00;102246.13;5049908;23;20014;-77
2022/10/07 02:35:04;;;;;;;4.35;1.98;;;7.00;99.90;;;6.12;100.00;102248.75;5074011;23;20013;-78
2022/10/07 02:37:24;;;;;;;7.25;2.33;;;7.00;99.90;;;6.10;100.00;102240.97;5073733;23;20090;-78
2022/10/07 02:39:27;;;;;;;10.20;2.45;;;6.90;99.90;;;6.08;100.00;102242.00;5075434;23;20061;-77
2022/10/07 02:42:01;;;;;;;7.95;1.85;;;6.90;99.90;;;6.10;100.00;102237.50;5073441;23;20010;-78
2022/10/07 02:44:13;;;;;;;16.00;2.92;;;6.90;99.90;;;6.07;100.00;102240.28;5065899;23;20010;-77
2022/10/07 02:46:41;;;;;;;6.43;2.08;;;6.90;99.90;;;5.97;100.00;102231.31;5075331;23;20009;-78
2022/10/07 02:48:59;;;;;;;8.85;2.00;;;6.90;99.90;;;5.95;100.00;102231.38;5074235;23;20033;-77
2022/10/07 02:51:05;;;;;;;9.38;2.22;;;6.80;99.90;;;5.90;100.00;102222.97;5073991;23;20006;-77
2022/10/07 02:53:09;;;;;;;4.57;1.95;;;6.80;99.90;;;5.87;100.00;102219.66;5073896;23;20010;-77
2022/10/07 02:55:15;;;;;;;4.13;1.55;;;6.80;99.90;;;5.88;100.00;102222.22;5074063;23;20085;-77
2022/10/07 02:57:20;;;;;;;6.68;2.38;;;6.70;99.90;;;5.85;100.00;102218.91;5075416;23;20010;-77
2022/10/07 02:59:23;;;;;;;7.78;1.67;;;6.70;99.90;;;5.83;100.00;102218.13;5073779;23;20054;-77
2022/10/07 03:01:29;;;;;;;9.65;2.95;;;6.70;99.90;;;5.77;100.00;102211.47;5075169;23;20010;-77
2022/10/07 03:03:30;;;;;;;5.63;1.83;;;6.70;99.90;;;5.73;100.00;102219.59;5073841;23;20090;-77
2022/10/07 03:05:34;;;;;;;5.50;2.42;;;6.60;99.90;;;5.71;100.00;102214.44;5074007;23;20002;-77
2022/10/07 03:07:35;;;;;;;10.70;2.65;;;6.60;99.90;;;5.69;100.00;102212.84;5073844;23;20010;-78
2022/10/07 03:09:36;;;;;;;9.68;2.50;;;6.60;99.90;;;5.67;100.00;102201.63;5073993;23;20010;-77
2022/10/07 03:11:38;;;;;;;5.93;2.78;;;6.60;99.90;;;5.69;100.00;102213.69;5073739;23;20013;-77
2022/10/07 03:13:39;;;;;;;6.78;2.00;;;6.60;99.90;;;5.66;100.00;102202.56;5074833;23;20010;-77
2022/10/07 03:15:41;;;;;;;7.85;2.38;;;6.50;99.90;;;5.58;100.00;102195.97;5073927;23;20481;-78
2022/10/07 03:17:42;;;;;;;7.47;2.08;;;6.50;99.90;;;5.65;100.00;102201.72;5073874;23;20346;-77
2022/10/07 03:19:43;;;;;;;8.05;2.30;;;6.50;99.90;;;5.68;100.00;102198.06;5075206;23;20135;-77
2022/10/07 03:21:44;;;;;;;11.88;2.78;;;6.50;99.90;;;5.68;100.00;102196.28;5073813;23;20010;-77
2022/10/07 03:23:51;;;;;;;4.88;1.98;;;6.60;99.90;;;5.65;100.00;102191.25;5074883;23;20002;-78
2022/10/07 03:25:54;;;;;;;5.03;2.13;;;6.60;99.90;;;5.67;100.00;102201.63;5073446;23;20009;-78
2022/10/07 03:27:56;;;;;;;12.82;2.90;;;6.50;99.90;;;5.71;100.00;102197.88;5073722;23;20109;-77
2022/10/07 03:29:57;;;;;;;8.50;2.70;;;6.60;99.90;;;5.72;100.00;102200.44;5074775;23;20033;-77
2022/10/07 03:31:58;;;;;;;10.07;2.92;;;6.60;99.90;;;5.66;100.00;102192.94;5075065;23;20005;-77
2022/10/07 03:33:59;;;;;;;8.88;2.25;;;6.60;99.90;;;5.62;100.00;102195.81;5073536;23;20006;-77
2022/10/07 03:36:00;;;;;;;10.60;3.42;;;6.60;99.90;;;5.54;100.00;102188.41;5073574;23;20013;-78
2022/10/07 03:38:00;;;;;;;10.63;2.60;;;6.50;99.90;;;5.54;100.00;102194.50;5073121;23;20084;-78
2022/10/07 03:40:02;;;;;;;6.47;2.50;;;6.50;99.90;;;5.48;100.00;102188.75;5074980;23;20006;-78
2022/10/07 03:42:04;;;;;;;9.18;2.28;;;6.40;99.90;;;5.44;100.00;102188.09;5073705;23;20010;-78
2022/10/07 03:44:05;;;;;;;10.32;2.30;;;6.40;99.90;;;5.45;100.00;102195.00;5072834;23;20010;-77
2022/10/07 03:46:05;;;;;;;8.18;2.00;;;6.30;99.90;;;5.30;100.00;102168.88;5074922;23;20002;-77
2022/10/07 03:48:06;;;;;;;4.97;2.33;;;6.30;99.90;;;5.32;100.00;102180.94;5074881;23;20002;-77
2022/10/07 03:50:08;;;;;;;10.02;1.98;;;6.30;99.90;;;5.32;100.00;102186.16;5074878;23;20002;-77
2022/10/07 03:52:09;;;;;;;10.43;2.30;;;6.30;99.90;;;5.30;100.00;102190.66;5048905;23;20343;-77
2022/10/07 03:54:11;;;;;;;10.18;1.98;;;6.20;99.90;;;5.25;100.00;102177.00;5073085;23;20006;-77
2022/10/07 03:56:11;;;;;;;5.65;1.90;;;6.20;99.90;;;5.25;100.00;102187.47;5097803;23;20006;-77
2022/10/07 03:58:12;;;;;;;7.78;2.83;;;6.10;99.90;;;5.22;100.00;102185.03;5074762;23;20009;-77
2022/10/07 04:00:13;;;;;;;7.90;2.25;;;6.10;99.90;;;5.21;100.00;102185.94;5074487;23;20057;-77
2022/10/07 04:02:14;;;;;;;4.70;1.98;;;6.10;99.90;;;5.23;100.00;102180.59;5074814;23;20061;-77
2022/10/07 04:04:15;;;;;;;9.18;2.13;;;6.10;99.90;;;5.15;100.00;102169.75;5074998;23;20009;-77
2022/10/07 04:06:16;;;;;;;4.82;2.30;;;6.10;99.90;;;5.20;100.00;102181.63;5074758;23;20002;-77
2022/10/07 04:08:17;;;;;;;4.70;2.30;;;6.10;99.90;;;5.14;100.00;102174.13;5073236;23;20006;-77
2022/10/07 04:10:19;;;;;;;3.47;1.73;;;6.10;99.90;;;5.14;100.00;102179.34;5073271;23;20006;-77
2022/10/07 04:12:20;;;;;;;8.05;2.28;;;6.10;99.90;;;5.12;100.00;102178.59;5073359;23;20036;-78
2022/10/07 04:14:21;;;;;;;7.85;2.08;;;6.00;99.90;;;5.11;100.00;102183.94;5074342;23;20002;-77
2022/10/07 04:16:21;;;;;;;7.97;2.30;;;6.00;99.90;;;5.11;100.00;102179.53;5074688;23;20044;-77
2022/10/07 04:18:23;;;;;;;7.13;1.85;;;6.00;99.90;;;5.03;100.00;102155.59;5073020;23;20009;-77
2022/10/07 04:20:25;;;;;;;6.90;2.30;;;6.00;99.90;;;5.16;100.00;102167.06;5074825;23;20481;-77
2022/10/07 04:22:26;;;;;;;5.10;1.85;;;6.00;99.90;;;5.14;100.00;102168.88;5072968;23;20064;-77
2022/10/07 04:24:27;;;;;;;6.55;1.95;;;6.10;99.90;;;5.16;100.00;102174.06;5073096;23;20037;-77
2022/10/07 04:26:28;;;;;;;10.40;3.35;;;6.00;99.90;;;5.13;100.00;102163.75;5048783;23;20010;-77
2022/10/07 04:28:28;;;;;;;5.07;2.20;;;6.10;99.90;;;5.16;100.00;102167.06;5097249;23;20041;-77
2022/10/07 04:30:33;;;;;;;7.28;2.33;;;6.10;99.90;;;5.16;100.00;102172.28;5074369;23;20037;-77
2022/10/07 04:32:35;;;;;;;4.88;2.20;;;6.10;99.90;;;5.11;100.00;102168.25;5073391;23;20358;-77
2022/10/07 04:34:35;;;;;;;8.40;2.20;;;6.00;99.90;;;5.09;100.00;102173.53;5072749;23;20014;-77
2022/10/07 04:36:36;;;;;;;8.18;2.22;;;6.00;99.90;;;5.08;100.00;102174.47;5081498;23;20017;-77
2022/10/07 04:38:38;;;;;;;6.20;2.15;;;6.00;99.90;;;5.08;100.00;102174.47;5098935;23;20009;-77
2022/10/07 04:40:42;;;;;;;5.05;2.42;;;6.00;99.90;;;5.07;100.00;102178.03;5072771;23;20033;-77
2022/10/07 04:45:04;;;;;;;8.38;2.58;;;6.00;99.90;;;5.00;100.00;102179.28;5098403;23;20400;-77
2022/10/07 04:47:06;;;;;;;7.07;2.40;;;5.90;99.90;;;4.99;100.00;102185.44;5097250;23;20006;-77
2022/10/07 04:49:09;;;;;;;9.85;2.42;;;5.90;99.90;;;4.98;100.00;102184.63;5098865;23;20037;-77
2022/10/07 04:51:10;;;;;;;7.85;2.60;;;5.90;99.90;;;4.96;100.00;102167.31;5072804;23;20057;-77
2022/10/07 04:53:14;;;;;;;5.20;2.00;;;5.90;99.90;;;5.05;100.00;102179.06;5097418;23;20006;-77
2022/10/07 04:55:15;;;;;;;6.35;2.53;;;5.90;99.90;;;5.03;100.00;102177.34;5098773;23;20076;-77
2022/10/07 04:57:16;;;;;;;6.80;2.47;;;5.90;99.90;;;5.00;100.00;102168.84;5073572;23;20009;-77
2022/10/07 04:59:18;;;;;;;10.65;2.60;;;5.90;99.90;;;4.98;100.00;102170.69;5072493;23;20014;-77
2022/10/07 05:01:19;;;;;;;8.43;2.38;;;5.90;99.90;;;4.97;100.00;102162.00;5097193;23;20006;-77
2022/10/07 05:03:22;;;;;;;9.55;2.92;;;5.90;99.90;;;5.01;100.00;102167.91;5048480;23;20065;-77
2022/10/07 05:05:26;;;;;;;6.30;2.25;;;5.90;99.90;;;4.90;100.00;102151.97;5098938;23;20006;-77
2022/10/07 05:07:27;;;;;;;4.82;2.20;;;5.90;99.90;;;4.96;100.00;102167.31;5048769;23;20041;-77
2022/10/07 05:09:28;;;;;;;4.15;1.95;;;5.90;99.90;;;4.95;100.00;102168.25;5097241;23;20010;-77
2022/10/07 05:11:28;;;;;;;4.57;2.20;;;5.80;99.90;;;4.93;100.00;102165.72;5072821;23;20477;-77
2022/10/07 05:13:30;;;;;;;9.68;2.10;;;5.80;99.90;;;4.92;100.00;102168.41;5072453;23;20005;-77
2022/10/07 05:15:31;;;;;;;6.05;2.55;;;5.80;99.90;;;4.91;100.00;102166.72;5098610;23;20387;-77
2022/10/07 05:17:32;;;;;;;7.45;2.50;;;5.80;99.90;;;4.87;100.00;102166.03;5072660;23;20086;-77
2022/10/07 05:19:34;;;;;;;5.60;2.05;;;5.80;99.90;;;4.79;100.00;102151.72;5097871;23;20064;-77
2022/10/07 05:21:34;;;;;;;6.00;2.65;;;5.80;99.90;;;4.85;100.00;102160.06;5098401;23;20009;-77
2022/10/07 05:23:35;;;;;;;8.32;2.47;;;5.70;99.90;;;4.81;100.00;102155.06;5098467;23;20423;-77
2022/10/07 05:25:37;;;;;;;7.20;2.75;;;5.70;99.90;;;4.78;100.00;102150.03;5072745;23;20573;-77
2022/10/07 05:27:39;;;;;;;7.97;2.60;;;5.70;99.90;;;4.64;100.00;102134.25;5048281;23;20065;-77
2022/10/07 05:29:40;;;;;;;6.63;2.67;;;5.70;99.90;;;4.80;100.00;102167.34;5098410;23;20315;-77
2022/10/07 05:31:41;;;;;;;6.35;2.17;;;5.70;99.90;;;4.78;100.00;102161.31;5098057;23;20013;-77
2022/10/07 05:33:42;;;;;;;4.35;1.88;;;5.70;99.90;;;4.75;100.00;102158.88;5048133;23;20014;-77
2022/10/07 05:35:46;;;;;;;7.10;2.30;;;5.70;99.90;;;4.72;100.00;102156.44;5072295;23;20016;-77
2022/10/07 05:37:52;;;;;;;6.38;2.20;;;5.70;99.90;;;4.72;100.00;102166.06;5047688;23;20022;-77
2022/10/07 05:39:53;;;;;;;8.52;2.63;;;5.60;99.90;;;4.71;100.00;102172.22;5096477;23;20005;-77
2022/10/07 05:41:54;;;;;;;4.07;2.20;;;5.60;99.90;;;4.67;100.00;102160.22;5072282;23;20198;-77
2022/10/07 05:43:55;;;;;;;9.02;2.67;;;5.60;99.90;;;4.56;100.00;102152.97;5073563;23;20005;-77
2022/10/07 05:46:02;;;;;;;9.27;2.30;;;5.60;99.90;;;4.62;100.00;102157.88;5073767;23;20069;-77
2022/10/07 05:48:04;;;;;;;10.00;2.50;;;5.50;99.90;;;4.61;100.00;102157.94;5073802;23;20006;-77
2022/10/07 05:50:06;;;;;;;3.10;1.75;;;5.60;99.90;;;4.62;100.00;102164.88;5072253;23;20048;-77
2022/10/07 05:52:07;;;;;;;7.47;2.35;;;5.50;99.90;;;4.56;100.00;102146.91;5073899;23;20010;-77
2022/10/07 05:54:08;;;;;;;6.95;2.58;;;5.50;99.90;;;4.59;100.00;102150.22;5072308;23;20013;-77
2022/10/07 05:56:13;;;;;;;5.78;2.45;;;5.50;99.90;;;4.61;100.00;102155.31;5073982;23;20005;-77
2022/10/07 05:58:14;;;;;;;5.85;1.98;;;5.50;99.90;;;4.57;100.00;102156.44;5072052;23;20049;-77
2022/10/07 06:00:15;;;;;;;6.28;2.00;;;5.50;99.90;;;4.57;100.00;102156.44;5096631;23;20006;-77
2022/10/07 06:02:18;;;;;;;4.78;2.20;;;5.50;99.90;;;4.55;100.00;102155.66;5072505;23;20017;-77
2022/10/07 06:04:18;;;;;;;4.57;2.22;;;5.50;99.90;;;4.51;100.00;102156.78;5073630;23;20057;-78
2022/10/07 06:06:20;;;;;;;8.05;1.88;;;5.40;99.90;;;4.51;100.00;102146.31;5070229;23;20006;-78
2022/10/07 06:08:22;;;;;;;8.10;2.10;;;5.40;99.90;;;4.59;100.00;102157.19;5072904;23;20010;-77
2022/10/07 06:15:03;;;;;;;5.70;2.30;;;5.50;99.90;;;4.58;100.00;102158.13;5071294;23;20029;-78
2022/10/07 06:17:04;;;;;;;3.78;2.08;;;5.50;99.90;;;4.54;100.00;102149.59;5070751;23;20350;-78
2022/10/07 06:19:21;;;;;;;5.45;2.08;;;5.50;99.90;;;4.53;100.00;102157.53;5072946;23;20014;-78
2022/10/07 06:21:26;;;;;;;5.25;2.20;;;5.50;99.90;;;4.52;100.00;102155.81;5074329;23;20029;-78
2022/10/07 06:23:28;;;;;;;3.80;2.25;;;5.50;99.90;;;4.53;100.00;102165.38;5047250;23;20471;-78
2022/10/07 06:25:29;;;;;;;2.35;1.52;;;5.40;99.90;;;4.48;100.00;102148.16;5047275;23;20013;-78
2022/10/07 06:27:31;;;;;;;6.32;2.08;;;5.40;99.90;;;4.45;100.00;102148.31;5070989;23;20009;-78
2022/10/07 06:29:32;;;;;;;10.18;2.50;;;5.40;99.90;;;4.57;100.00;102153.84;5046746;23;20014;-78
2022/10/07 06:31:33;;;;;;;5.97;2.55;;;5.50;99.90;;;4.59;100.00;102155.44;5071435;23;20018;-78
2022/10/07 06:33:34;;;;;;;6.70;2.45;;;5.50;99.90;;;4.58;100.00;102152.88;5072912;23;20013;-78
2022/10/07 06:35:35;;;;;;;5.50;3.13;;;5.50;99.90;;;4.62;100.00;102149.19;5071461;23;20014;-78
2022/10/07 06:37:38;;;;;;;8.27;2.40;;;5.50;99.90;;;4.69;100.00;102142.72;5047262;23;20340;-78
2022/10/07 06:39:38;;;;;;;7.35;2.65;;;5.60;99.90;;;4.57;100.00;102127.69;5048179;23;20016;-78
2022/10/07 06:41:40;;;;;;;5.20;2.60;;;5.60;99.90;;;4.66;100.00;102133.25;5072160;23;20006;-78
2022/10/07 06:43:41;;;;;;;4.38;1.88;;;5.60;99.90;;;4.70;100.00;102141.75;5072208;23;20054;-78
2022/10/07 06:45:42;;;;;;;4.40;2.03;;;5.60;99.90;;;4.74;100.00;102151.13;5072443;23;20006;-78
2022/10/07 06:47:42;;;;;;;7.75;2.30;;;5.60;99.90;;;4.76;100.00;102151.88;5072226;23;20038;-78
2022/10/07 06:49:43;;;;;;;4.30;2.40;;;5.60;99.90;;;4.75;100.00;102145.00;5073459;23;20006;-78
2022/10/07 06:51:45;;;;;;;8.27;2.30;;;5.60;99.90;;;4.78;100.00;102155.28;5073569;23;20347;-78
2022/10/07 06:53:52;;;;;;;6.40;2.30;;;5.70;99.90;;;4.73;100.00;102132.00;5072401;23;20418;-77
2022/10/07 06:55:56;;;;;;;6.43;3.08;;;5.70;99.90;;;4.67;100.00;102121.03;5072302;23;20073;-77
2022/10/07 06:57:57;;;;;;;6.93;2.70;;;5.70;99.90;;;4.85;100.00;102140.91;5073994;23;20427;-76
2022/10/07 06:59:59;;;;;;;5.10;2.65;;;5.70;99.90;;;4.96;100.00;102141.16;5073618;23;20013;-77
2022/10/07 07:02:00;;;;;;;6.68;2.60;;;5.80;99.90;;;4.97;100.00;102135.00;5049799;23;20006;-77
2022/10/07 07:04:01;;;;;;;8.82;2.67;;;5.90;99.90;;;5.12;100.00;102146.38;5075434;23;20029;-78
2022/10/07 07:06:02;;;;;;;5.05;2.33;;;6.00;99.90;;;5.20;100.00;102152.00;5049172;23;20467;-78
2022/10/07 07:08:03;;;;;;;6.57;2.33;;;6.00;99.90;;;5.09;100.00;102121.25;5073178;23;20084;-77
2022/10/07 07:10:05;;;;;;;5.07;1.70;;;6.10;99.90;;;5.31;100.00;102160.94;5073319;23;20104;-78
2022/10/07 07:12:06;;;;;;;5.97;2.97;;;6.20;99.90;;;5.35;100.00;102157.22;5075112;23;20005;-78
2022/10/07 07:14:10;;;;;;;4.13;2.05;;;6.20;99.90;;;5.40;100.00;102142.13;5073459;23;20065;-78
2022/10/07 07:16:11;;;;;;;7.50;2.47;;;6.30;99.90;;;5.43;100.00;102149.78;5049729;23;20854;-78
2022/10/07 07:18:12;;;;;;;6.15;2.50;;;6.30;99.90;;;5.48;100.00;102137.28;5073515;23;20454;-78
2022/10/07 07:20:13;;;;;;;3.58;1.95;;;6.40;99.90;;;5.61;100.00;102153.09;5097686;23;20052;-78
2022/10/07 07:22:14;;;;;;;4.93;2.08;;;6.50;99.90;;;5.71;100.00;102158.63;5073737;23;20081;-78
2022/10/07 07:24:15;;;;;;;4.40;2.63;;;6.60;99.90;;;5.69;100.00;102147.41;5049256;23;20379;-78
2022/10/07 07:26:17;;;;;;;5.85;1.95;;;6.60;99.90;;;5.79;100.00;102149.41;5070417;23;20013;-76
2022/10/07 07:28:18;;;;;;;9.75;3.42;;;6.70;99.90;;;5.86;100.00;102152.50;5073899;23;20509;-78
2022/10/07 07:30:22;;;;;;;6.07;2.03;;;6.70;99.90;;;5.87;100.00;102144.56;5073749;23;20001;-77
2022/10/07 07:32:23;;;;;;;6.75;2.33;;;6.80;99.90;;;5.98;100.00;102162.25;5072718;23;20033;-77
2022/10/07 07:34:24;;;;;;;7.00;2.38;;;6.80;99.90;;;6.04;100.00;102162.72;5073645;23;20033;-78
2022/10/07 07:36:28;;;;;;;5.85;3.08;;;6.90;99.90;;;6.06;100.00;102155.63;5078729;23;20014;-77
2022/10/07 07:38:29;;;;;;;6.50;2.75;;;7.00;99.90;;;6.13;100.00;102156.94;5048393;23;20013;-78
2022/10/07 07:40:29;;;;;;;8.77;3.22;;;7.00;99.90;;;6.18;100.00;102167.16;5098474;23;20005;-77
2022/10/07 07:42:30;;;;;;;6.10;2.65;;;7.10;99.90;;;6.21;100.00;102159.13;5098205;23;20001;-78
2022/10/07 07:44:32;;;;;;;8.38;2.50;;;7.10;99.90;;;6.25;100.00;102155.34;5072112;23;20013;-78
2022/10/07 07:46:38;;;;;;;7.40;2.65;;;7.20;99.90;;;6.36;100.00;102160.78;5072553;23;20001;-78
2022/10/07 07:48:38;;;;;;;7.05;3.45;;;7.30;99.90;;;6.45;100.00;102154.97;5072983;23;20006;-78
2022/10/07 07:50:39;;;;;;;5.97;3.22;;;7.30;99.90;;;6.42;100.00;102136.00;5072454;23;20370;-78
2022/10/07 07:52:41;;;;;;;6.63;2.75;;;7.40;99.90;;;6.62;100.00;102149.53;5072742;23;20719;-78
2022/10/07 07:54:42;;;;;;;7.68;3.05;;;7.50;99.90;;;6.69;100.00;102149.97;5098475;23;20010;-77
2022/10/07 07:56:43;;;;;;;8.48;2.72;;;7.60;99.90;;;6.73;100.00;102146.22;5048296;23;20014;-78
2022/10/07 07:58:45;;;;;;;7.00;3.72;;;7.60;99.90;;;6.80;100.00;102147.53;5072725;23;20058;-78
2022/10/07 08:01:12;;;;;;;7.55;2.80;;;7.70;99.90;;;6.90;100.00;102148.59;5073410;23;20066;-78
2022/10/07 08:03:13;;;;;;;4.45;2.20;;;7.80;99.90;;;6.95;100.00;102158.81;5074338;23;20006;-78
2022/10/07 08:05:14;;;;;;;5.57;2.42;;;7.80;99.90;;;6.96;100.00;102150.84;5099199;23;20496;-78
2022/10/07 08:07:15;;;;;;;6.97;2.33;;;7.90;99.90;;;7.07;100.00;102150.16;5073515;23;20033;-78
2022/10/07 08:09:16;;;;;;;8.18;2.58;;;8.00;99.90;;;7.07;100.00;102152.78;5072925;23;20006;-78
2022/10/07 08:11:20;;;;;;;8.43;2.30;;;8.00;99.90;;;7.13;100.00;102148.00;5073059;23;20050;-78
2022/10/07 08:13:21;;;;;;;11.38;2.58;;;8.10;99.90;;;7.22;100.00;102157.03;5048817;23;20014;-78
2022/10/07 08:15:22;;;;;;;4.00;2.22;;;8.10;99.90;;;7.16;100.00;102134.66;5099060;23;20014;-78
2022/10/07 08:17:23;;;;;;;8.13;2.17;;;8.20;99.90;;;7.35;100.00;102151.84;5098965;23;20016;-78
2022/10/07 08:19:26;;;;;;;4.85;2.38;;;8.20;99.90;;;7.40;100.00;102145.34;5073093;23;20515;-78
2022/10/07 08:21:34;;;;;;;5.07;2.17;;;8.30;99.90;;;7.45;100.00;102145.88;5098999;23;20001;-78
2022/10/07 08:23:36;;;;;;;4.80;2.22;;;8.40;99.90;;;7.50;100.00;102145.53;5072753;23;20422;-78
2022/10/07 08:25:37;;;;;;;6.05;2.22;;;8.40;99.90;;;7.56;100.00;102140.72;5097356;23;20015;-78
2022/10/07 08:27:38;;;;;;;2.78;1.80;;;8.50;99.90;;;7.63;100.00;102139.38;5073392;23;20005;-78
2022/10/07 08:29:39;;;;;;;3.67;1.70;;;8.50;99.90;;;7.67;100.00;102140.88;5098806;23;20057;-78
2022/10/07 08:31:41;;;;;;;5.30;1.92;;;8.60;99.90;;;7.77;100.00;102141.06;5073315;23;20013;-78
2022/10/07 08:33:43;;;;;;;4.35;2.20;;;8.70;99.90;;;7.73;100.00;102121.22;5073305;23;20064;-78
2022/10/07 08:35:57;;;;;;;4.18;1.90;;;8.80;99.90;;;7.92;100.00;102132.16;5073316;23;20064;-78
2022/10/07 08:37:58;;;;;;;3.72;2.00;;;8.80;99.90;;;8.01;100.00;102141.19;5048557;23;20364;-78
2022/10/07 08:39:59;;;;;;;3.35;1.92;;;8.90;99.90;;;8.07;100.00;102138.97;5097338;23;20061;-78
2022/10/07 08:42:24;;;;;;;5.22;2.17;;;9.00;99.90;;;8.14;100.00;102131.53;5074487;23;20029;-78
2022/10/07 08:44:38;;;;;;;5.40;2.42;;;9.10;99.90;;;8.26;100.00;102135.94;5050422;23;20002;-78
2022/10/07 08:46:48;;;;;;;;;;;9.20;99.90;;;8.35;100.00;102137.94;5049434;23;20065;-78
2022/10/07 08:49:14;;;;;;;5.32;3.08;;;9.30;99.90;;;8.52;100.00;102139.38;5072737;23;19908;-78
2022/10/07 08:51:28;;;;;;;5.50;1.83;;;9.40;99.90;;;8.60;100.00;102127.34;5096936;23;20012;-78